Time;durP1;ratioP1;P1;durP2;ratioP2;P2;SDS_P1;SDS_P2;PMS_P1;PMS_P2;Temp;Humidity;BMP_temperature;BMP_pressure;BME280_temperature;BME280_humidity;BME280_pressure;Samples;Min_cycle;Max_cycle;Signal;HPM_P1;HPM_P2
2023/11/22 00:00:09;;;;;;;3.15;2.95;;;15.60;68.30;;;;;;5052529;28;20170;-65
2023/11/22 00:02:35;;;;;;;2.92;2.72;;;15.60;68.40;;;;;;5052709;28;20698;-65
2023/11/22 00:05:00;;;;;;;2.90;2.70;;;15.60;68.40;;;;;;5053112;28;20195;-64
2023/11/22 00:07:29;;;;;;;2.88;2.67;;;15.60;68.40;;;;;;5050814;28;20175;-65
2023/11/22 00:09:55;;;;;;;2.90;2.70;;;15.60;68.40;;;;;;5052852;28;20175;-64
2023/11/22 00:12:21;;;;;;;2.67;2.47;;;15.60;68.40;;;;;;5052372;28;20207;-66
2023/11/22 00:14:47;;;;;;;2.75;2.55;;;15.60;68.40;;;;;;5052246;28;20202;-65
2023/11/22 00:17:13;;;;;;;3.13;2.83;;;15.60;68.40;;;;;;5052766;28;20619;-64
2023/11/22 00:19:38;;;;;;;2.97;2.78;;;15.50;68.40;;;;;;5052783;28;20189;-65
2023/11/22 00:22:11;;;;;;;3.20;3.00;;;15.50;68.20;;;;;;5051916;28;20175;-64
2023/11/22 00:24:37;;;;;;;3.13;2.92;;;15.50;68.30;;;;;;5052745;28;20601;-65
2023/11/22 00:27:02;;;;;;;2.70;2.50;;;15.50;68.30;;;;;;5052874;28;20262;-65
2023/11/22 00:29:28;;;;;;;3.40;3.10;;;15.50;68.30;;;;;;5051764;28;20248;-65
2023/11/22 00:31:54;;;;;;;3.28;3.03;;;15.50;68.20;;;;;;5052510;28;20233;-66
2023/11/22 00:34:19;;;;;;;2.88;2.67;;;15.50;68.30;;;;;;5051490;28;20214;-65
2023/11/22 00:36:45;;;;;;;3.20;2.80;;;15.50;68.20;;;;;;5053290;28;20236;-65
2023/11/22 00:39:13;;;;;;;3.00;2.80;;;15.50;68.30;;;;;;5053503;28;20179;-65
2023/11/22 00:41:39;;;;;;;3.55;3.25;;;15.50;68.20;;;;;;5052009;28;20217;-67
2023/11/22 00:44:05;;;;;;;2.83;2.63;;;15.50;68.10;;;;;;5052619;28;20194;-66
2023/11/22 00:46:31;;;;;;;3.40;2.65;;;15.40;68.90;;;;;;5052032;28;20269;-66
2023/11/22 00:48:57;;;;;;;3.72;3.42;;;15.40;68.10;;;;;;5060179;28;20182;-65
2023/11/22 00:51:23;;;;;;;2.88;2.60;;;15.40;68.00;;;;;;5071827;28;20296;-66
2023/11/22 00:53:49;;;;;;;3.25;3.05;;;15.40;68.00;;;;;;5072405;28;20179;-65
2023/11/22 00:56:15;;;;;;;2.80;2.60;;;15.40;68.00;;;;;;5071313;28;20179;-66
2023/11/22 00:58:40;;;;;;;2.90;2.70;;;15.40;68.10;;;;;;5072237;28;20179;-65
2023/11/22 01:01:06;;;;;;;3.58;3.35;;;15.40;68.00;;;;;;5072271;28;20687;-65
2023/11/22 01:03:32;;;;;;;3.00;2.80;;;15.40;68.00;;;;;;5071184;28;20253;-65
2023/11/22 01:05:57;;;;;;;2.78;2.53;;;15.40;68.00;;;;;;5072051;28;20170;-64
2023/11/22 01:08:23;;;;;;;2.60;2.40;;;15.40;68.00;;;;;;5071714;28;20590;-65
2023/11/22 01:10:48;;;;;;;2.90;2.70;;;15.40;68.00;;;;;;5071473;28;20221;-65
2023/11/22 01:13:14;;;;;;;2.53;2.35;;;15.40;68.00;;;;;;5071833;28;20673;-65
2023/11/22 01:15:41;;;;;;;3.13;2.92;;;15.40;68.00;;;;;;5072142;28;20186;-65
2023/11/22 01:18:07;;;;;;;3.05;2.85;;;15.40;67.90;;;;;;5071369;28;20253;-64
2023/11/22 01:20:32;;;;;;;2.90;2.70;;;15.40;68.00;;;;;;5075480;28;20331;-65
2023/11/22 01:22:57;;;;;;;3.40;3.10;;;15.40;67.90;;;;;;5076257;28;20255;-64
2023/11/22 01:25:23;;;;;;;3.38;3.17;;;15.30;67.90;;;;;;5075219;28;20312;-65
2023/11/22 01:27:48;;;;;;;3.17;2.95;;;15.30;67.90;;;;;;5075983;28;20677;-65
2023/11/22 01:30:14;;;;;;;3.50;3.20;;;15.30;67.90;;;;;;5075592;28;20200;-65
2023/11/22 01:32:40;;;;;;;3.28;3.08;;;15.40;68.00;;;;;;5075171;28;20213;-65
2023/11/22 01:35:05;;;;;;;2.97;2.78;;;15.30;67.80;;;;;;5075842;28;20174;-65
2023/11/22 01:37:32;;;;;;;3.15;2.90;;;15.30;68.00;;;;;;5075121;28;20174;-65
2023/11/22 01:39:57;;;;;;;2.97;2.78;;;15.30;67.90;;;;;;5075737;28;20190;-65
2023/11/22 01:42:25;;;;;;;2.85;2.65;;;15.30;67.90;;;;;;5075640;28;20174;-65
2023/11/22 01:44:51;;;;;;;3.28;3.00;;;15.30;67.80;;;;;;5074845;28;20966;-66
2023/11/22 01:47:18;;;;;;;3.67;3.38;;;15.30;67.90;;;;;;5075323;28;20206;-66
2023/11/22 01:49:43;;;;;;;3.22;2.92;;;15.20;67.50;;;;;;5058843;28;20261;-65
2023/11/22 01:52:09;;;;;;;2.88;2.67;;;15.30;67.80;;;;;;5053581;28;20246;-65
2023/11/22 01:54:34;;;;;;;2.63;2.45;;;15.20;67.80;;;;;;5054138;28;20171;-65
2023/11/22 01:57:00;;;;;;;3.30;3.00;;;15.20;67.70;;;;;;5055698;28;20634;-65
2023/11/22 01:59:27;;;;;;;2.95;2.70;;;15.20;67.80;;;;;;5053389;28;20229;-66
2023/11/22 02:01:53;;;;;;;2.80;2.60;;;15.20;67.70;;;;;;5054192;28;20171;-65
2023/11/22 02:04:19;;;;;;;3.03;2.60;;;15.30;67.70;;;;;;5053770;28;20175;-65
2023/11/22 02:06:45;;;;;;;4.47;2.63;;;15.20;67.80;;;;;;5054791;28;20190;-64
2023/11/22 02:09:15;;;;;;;2.85;2.65;;;15.20;67.80;;;;;;5053949;28;20171;-65
2023/11/22 02:11:42;;;;;;;3.20;2.95;;;15.20;67.80;;;;;;5055193;28;20210;-64
2023/11/22 02:14:08;;;;;;;2.80;2.60;;;15.20;67.70;;;;;;5054524;28;20505;-65
2023/11/22 02:16:34;;;;;;;3.28;2.97;;;15.20;67.80;;;;;;5055286;28;20183;-64
2023/11/22 02:19:00;;;;;;;3.13;2.88;;;15.20;67.80;;;;;;5054916;28;20182;-64
2023/11/22 02:21:25;;;;;;;3.20;3.00;;;15.20;67.70;;;;;;5036388;28;20175;-65
2023/11/22 02:23:51;;;;;;;3.00;2.80;;;15.20;67.70;;;;;;5054870;28;20555;-64
2023/11/22 02:26:18;;;;;;;2.92;2.72;;;15.20;67.70;;;;;;5054588;28;20175;-65
2023/11/22 02:28:44;;;;;;;3.30;3.00;;;15.20;67.70;;;;;;5054417;28;20194;-66
2023/11/22 02:31:09;;;;;;;2.72;2.58;;;15.20;67.70;;;;;;5053604;28;20198;-65
2023/11/22 02:33:35;;;;;;;3.08;2.88;;;15.20;67.50;;;;;;5054366;28;20260;-66
2023/11/22 02:36:01;;;;;;;4.65;2.58;;;15.10;67.70;;;;;;5053908;28;20221;-65
2023/11/22 02:38:27;;;;;;;3.20;3.00;;;15.20;67.70;;;;;;5054525;28;20234;-65
2023/11/22 02:40:53;;;;;;;3.70;3.15;;;15.10;67.70;;;;;;5053964;28;20187;-65
2023/11/22 02:43:19;;;;;;;2.70;2.50;;;15.10;67.60;;;;;;5054549;28;20709;-66
2023/11/22 02:45:45;;;;;;;3.35;3.00;;;15.10;67.60;;;;;;5054579;28;20193;-66
2023/11/22 02:48:10;;;;;;;3.08;2.80;;;15.10;67.60;;;;;;5055931;28;20238;-65
2023/11/22 02:50:37;;;;;;;2.90;2.70;;;15.10;67.70;;;;;;5073911;28;20259;-66
2023/11/22 02:53:03;;;;;;;2.90;2.70;;;15.10;67.60;;;;;;5074481;28;20228;-66
2023/11/22 02:55:29;;;;;;;3.40;3.10;;;15.10;67.50;;;;;;5073522;28;20241;-65
2023/11/22 02:57:54;;;;;;;2.88;2.67;;;15.10;67.70;;;;;;5074292;28;20638;-65
2023/11/22 03:00:27;;;;;;;3.00;2.80;;;15.00;67.60;;;;;;5073894;28;20209;-66
2023/11/22 03:02:54;;;;;;;3.05;2.75;;;15.10;67.60;;;;;;5073828;28;20174;-65
2023/11/22 03:05:20;;;;;;;2.90;2.70;;;15.00;67.50;;;;;;5073792;28;20177;-65
2023/11/22 03:07:46;;;;;;;3.50;3.20;;;15.00;67.50;;;;;;5074260;28;20227;-65
2023/11/22 03:10:12;;;;;;;2.72;2.53;;;15.00;67.60;;;;;;5073504;28;20174;-64
2023/11/22 03:12:38;;;;;;;2.95;2.75;;;15.00;67.60;;;;;;5073651;28;20254;-64
2023/11/22 03:15:04;;;;;;;2.75;2.55;;;15.00;68.40;;;;;;5073906;28;20594;-63
2023/11/22 03:17:29;;;;;;;2.72;2.53;;;15.00;67.50;;;;;;5073191;28;20183;-64
2023/11/22 03:19:56;;;;;;;3.28;3.08;;;15.00;67.50;;;;;;5074028;28;20170;-64
2023/11/22 03:22:23;;;;;;;3.20;2.90;;;15.00;67.60;;;;;;5073680;28;20182;-65
2023/11/22 03:24:49;;;;;;;3.30;3.00;;;15.00;67.50;;;;;;5073225;28;20174;-64
2023/11/22 03:27:14;;;;;;;2.80;2.60;;;15.00;67.60;;;;;;5073765;28;20179;-65
2023/11/22 03:29:40;;;;;;;4.43;3.10;;;15.00;67.60;;;;;;5073946;28;20293;-64
2023/11/22 03:32:06;;;;;;;3.58;3.28;;;15.00;67.40;;;;;;5073090;28;20293;-64
2023/11/22 03:34:31;;;;;;;2.70;2.50;;;15.00;67.60;;;;;;5073275;28;20602;-64
2023/11/22 03:36:57;;;;;;;2.97;2.78;;;14.90;67.50;;;;;;5073633;28;20181;-63
2023/11/22 03:39:23;;;;;;;3.00;2.80;;;15.00;67.60;;;;;;5072923;28;20174;-64
2023/11/22 03:41:50;;;;;;;3.50;2.88;;;15.00;67.60;;;;;;5073252;28;20178;-65
2023/11/22 03:44:16;;;;;;;3.10;2.88;;;14.90;67.50;;;;;;5071746;28;20179;-64
2023/11/22 03:46:41;;;;;;;3.33;2.60;;;15.00;67.60;;;;;;5073574;28;20231;-65
2023/11/22 03:49:07;;;;;;;2.67;2.47;;;15.00;67.60;;;;;;5062793;28;20576;-64
2023/11/22 03:51:33;;;;;;;2.60;2.40;;;14.90;67.50;;;;;;5052155;28;20233;-65
2023/11/22 03:53:58;;;;;;;3.30;3.00;;;14.90;67.40;;;;;;5053340;28;20182;-65
2023/11/22 03:56:24;;;;;;;2.78;2.58;;;14.90;67.40;;;;;;5053543;28;20655;-65
2023/11/22 03:58:50;;;;;;;3.33;2.90;;;14.90;67.50;;;;;;5053030;28;20198;-64
2023/11/22 04:01:20;;;;;;;3.13;2.83;;;14.90;67.50;;;;;;5052740;28;20203;-64
2023/11/22 04:03:46;;;;;;;2.90;2.70;;;14.90;67.40;;;;;;5053107;28;20175;-64
2023/11/22 04:06:12;;;;;;;2.85;2.65;;;14.90;67.50;;;;;;5052255;28;20179;-64
2023/11/22 04:08:37;;;;;;;3.28;2.97;;;14.90;67.50;;;;;;5052762;28;20190;-63
2023/11/22 04:11:03;;;;;;;2.65;2.45;;;14.90;67.50;;;;;;5052818;28;20198;-64
2023/11/22 04:13:30;;;;;;;3.00;2.80;;;14.90;67.40;;;;;;5051944;28;20206;-64
2023/11/22 04:15:56;;;;;;;3.40;3.10;;;14.80;67.30;;;;;;5053130;28;20262;-64
2023/11/22 04:18:21;;;;;;;2.85;2.65;;;14.90;67.50;;;;;;5052642;28;20262;-63
2023/11/22 04:20:47;;;;;;;2.67;2.47;;;14.90;67.50;;;;;;5052181;28;20261;-63
2023/11/22 04:23:14;;;;;;;2.97;2.75;;;14.80;67.40;;;;;;5052797;28;20175;-63
2023/11/22 04:25:41;;;;;;;3.30;3.00;;;14.80;67.40;;;;;;5052663;28;20179;-63
2023/11/22 04:28:08;;;;;;;2.85;2.65;;;14.80;67.30;;;;;;5051809;28;20266;-64
2023/11/22 04:30:34;;;;;;;3.00;2.70;;;14.80;67.20;;;;;;5052313;28;20179;-65
2023/11/22 04:32:59;;;;;;;2.67;2.47;;;14.80;67.30;;;;;;5052638;28;20190;-64
2023/11/22 04:35:25;;;;;;;2.65;2.45;;;14.80;67.40;;;;;;5051609;28;20265;-65
2023/11/22 04:37:50;;;;;;;2.90;2.70;;;14.80;67.30;;;;;;5052438;28;20186;-64
2023/11/22 04:40:17;;;;;;;3.40;3.10;;;14.80;67.40;;;;;;5051999;28;20179;-65
2023/11/22 04:42:43;;;;;;;3.03;2.83;;;14.80;67.40;;;;;;5051842;28;20186;-65
2023/11/22 04:45:09;;;;;;;3.10;2.85;;;14.80;67.30;;;;;;5052352;28;20183;-65
2023/11/22 04:47:35;;;;;;;3.10;2.80;;;14.80;67.30;;;;;;5051525;28;20232;-66
2023/11/22 04:50:00;;;;;;;3.42;3.13;;;14.80;67.40;;;;;;5069497;28;20433;-66
2023/11/22 04:52:26;;;;;;;3.30;3.00;;;14.70;67.40;;;;;;5071909;28;20217;-65
2023/11/22 04:54:52;;;;;;;2.78;2.58;;;14.80;67.30;;;;;;5070961;28;20177;-65
2023/11/22 04:57:17;;;;;;;3.15;2.95;;;14.70;67.40;;;;;;5071824;28;20182;-65
2023/11/22 04:59:43;;;;;;;4.07;2.95;;;14.70;67.40;;;;;;5072471;28;20185;-65
2023/11/22 05:02:08;;;;;;;3.10;2.90;;;14.70;67.30;;;;;;5071445;28;20177;-64
2023/11/22 05:04:34;;;;;;;3.53;3.22;;;14.70;67.30;;;;;;5071919;28;20175;-64
2023/11/22 05:06:59;;;;;;;2.65;2.45;;;14.70;67.30;;;;;;5072270;28;20174;-64
2023/11/22 05:09:25;;;;;;;3.10;2.90;;;14.70;67.30;;;;;;5071158;28;20280;-64
2023/11/22 05:11:52;;;;;;;3.25;2.70;;;14.70;67.30;;;;;;5071866;28;20208;-64
2023/11/22 05:14:17;;;;;;;3.20;2.97;;;14.70;67.20;;;;;;5072023;28;20267;-64
2023/11/22 05:16:43;;;;;;;3.15;2.95;;;14.70;67.20;;;;;;5071475;28;20668;-64
2023/11/22 05:19:08;;;;;;;3.00;2.80;;;14.70;67.20;;;;;;5072119;28;20167;-64
2023/11/22 05:21:34;;;;;;;2.80;2.60;;;14.70;67.20;;;;;;5071733;28;20545;-64
2023/11/22 05:23:59;;;;;;;3.08;2.88;;;14.70;67.20;;;;;;5071163;28;20182;-64
2023/11/22 05:26:25;;;;;;;3.17;2.58;;;14.70;67.10;;;;;;5071547;28;20174;-64
2023/11/22 05:28:53;;;;;;;3.20;2.90;;;14.70;67.20;;;;;;5072150;28;20175;-64
2023/11/22 05:31:22;;;;;;;2.60;2.40;;;14.70;67.20;;;;;;5070936;28;20213;-65
2023/11/22 05:33:48;;;;;;;3.55;2.75;;;14.60;67.00;;;;;;5070797;28;20175;-64
2023/11/22 05:36:16;;;;;;;3.00;2.80;;;14.60;67.10;;;;;;5071575;28;20176;-64
2023/11/22 05:38:42;;;;;;;3.00;2.80;;;14.60;67.10;;;;;;5069833;28;20194;-64
2023/11/22 05:41:08;;;;;;;2.90;2.70;;;14.60;67.00;;;;;;5071708;28;20200;-65
2023/11/22 05:43:36;;;;;;;2.78;2.58;;;14.60;67.00;;;;;;5071588;28;20191;-65
2023/11/22 05:46:04;;;;;;;3.13;2.83;;;14.60;67.00;;;;;;5070952;28;20522;-65
2023/11/22 05:48:30;;;;;;;2.92;2.72;;;14.60;66.80;;;;;;5066179;28;20167;-65
2023/11/22 05:50:55;;;;;;;2.97;2.67;;;14.60;66.90;;;;;;5050697;28;20318;-64
2023/11/22 05:53:21;;;;;;;3.38;2.83;;;14.60;67.10;;;;;;5051240;28;20186;-65
2023/11/22 05:55:49;;;;;;;2.67;2.47;;;14.60;67.00;;;;;;5051846;28;20167;-65
2023/11/22 05:58:18;;;;;;;2.95;2.75;;;14.60;67.00;;;;;;5050711;28;20171;-65
2023/11/22 06:00:46;;;;;;;3.85;2.83;;;14.60;67.00;;;;;;5051627;28;20181;-65
2023/11/22 06:03:12;;;;;;;2.75;2.50;;;14.60;67.00;;;;;;5051536;28;20631;-65
2023/11/22 06:05:38;;;;;;;2.70;2.50;;;14.60;67.20;;;;;;5052749;28;20171;-64
2023/11/22 06:08:04;;;;;;;2.88;2.67;;;14.60;67.20;;;;;;5055166;28;20229;-65
2023/11/22 06:10:29;;;;;;;2.80;2.60;;;14.60;67.10;;;;;;5054837;28;20645;-64
2023/11/22 06:12:55;;;;;;;2.92;2.70;;;14.70;66.90;;;;;;5054254;28;20222;-65
2023/11/22 06:15:22;;;;;;;2.78;2.58;;;14.70;66.70;;;;;;5054765;28;20179;-65
2023/11/22 06:17:48;;;;;;;2.92;2.72;;;14.80;66.90;;;;;;5055156;28;20185;-64
2023/11/22 06:20:14;;;;;;;2.83;2.47;;;14.90;66.70;;;;;;5054052;28;20265;-64
2023/11/22 06:22:42;;;;;;;3.35;2.33;;;15.00;66.60;;;;;;5054860;28;20644;-64
2023/11/22 06:25:13;;;;;;;2.10;2.00;;;15.20;66.40;;;;;;5055209;28;20186;-65
2023/11/22 06:27:40;;;;;;;2.72;2.53;;;15.30;66.20;;;;;;5054072;28;20258;-66
2023/11/22 06:30:06;;;;;;;1.90;1.80;;;15.50;65.80;;;;;;5054783;28;20630;-66
2023/11/22 06:32:32;;;;;;;2.30;2.10;;;15.60;65.60;;;;;;5054400;28;20612;-67
2023/11/22 06:34:57;;;;;;;2.28;2.08;;;15.70;65.20;;;;;;5054007;28;20171;-65
2023/11/22 06:37:23;;;;;;;1.85;1.75;;;15.90;65.00;;;;;;5054408;28;20228;-66
2023/11/22 06:39:48;;;;;;;2.20;2.00;;;15.90;64.80;;;;;;5054594;28;20179;-64
2023/11/22 06:42:14;;;;;;;2.20;2.00;;;16.00;64.50;;;;;;5054033;28;20190;-65
2023/11/22 06:44:40;;;;;;;2.17;2.00;;;16.10;64.30;;;;;;5054498;28;20680;-66
2023/11/22 06:47:07;;;;;;;2.03;1.83;;;16.20;64.10;;;;;;5053888;28;20198;-65
2023/11/22 06:49:33;;;;;;;2.38;2.00;;;16.20;63.90;;;;;;5067492;28;20651;-66
2023/11/22 06:51:58;;;;;;;2.20;2.00;;;16.30;63.60;;;;;;5074214;28;20297;-65
2023/11/22 06:54:24;;;;;;;2.33;2.13;;;16.40;63.60;;;;;;5073643;28;20228;-65
2023/11/22 06:56:51;;;;;;;2.22;1.80;;;16.50;63.40;;;;;;5074612;28;20174;-65
2023/11/22 06:59:16;;;;;;;2.13;2.03;;;16.50;63.30;;;;;;5074128;28;20220;-66
2023/11/22 07:01:42;;;;;;;2.15;1.95;;;16.50;63.40;;;;;;5073633;28;20206;-66
2023/11/22 07:04:08;;;;;;;2.03;1.92;;;16.40;63.40;;;;;;5074161;28;20541;-65
2023/11/22 07:06:33;;;;;;;2.03;1.83;;;16.50;63.50;;;;;;5073902;28;20322;-63
2023/11/22 07:08:59;;;;;;;2.42;2.22;;;16.50;63.20;;;;;;5073393;28;20175;-64
2023/11/22 07:11:24;;;;;;;2.58;2.35;;;16.50;63.30;;;;;;5073965;28;20210;-65
2023/11/22 07:13:51;;;;;;;3.20;2.17;;;16.50;63.30;;;;;;5073953;28;20175;-66
2023/11/22 07:16:18;;;;;;;1.98;1.88;;;16.50;63.40;;;;;;5071946;28;20240;-65
2023/11/22 07:18:44;;;;;;;2.20;2.10;;;16.60;63.50;;;;;;5073891;28;20240;-65
2023/11/22 07:21:11;;;;;;;1.88;1.77;;;16.60;63.30;;;;;;5073827;28;20266;-65
2023/11/22 07:23:37;;;;;;;1.85;1.75;;;16.70;63.20;;;;;;5073101;28;20198;-65
2023/11/22 07:26:03;;;;;;;1.77;1.67;;;16.80;62.80;;;;;;5073909;28;20244;-65
2023/11/22 07:28:29;;;;;;;1.92;1.83;;;17.00;62.50;;;;;;5073823;28;20179;-66
2023/11/22 07:30:54;;;;;;;1.80;1.70;;;17.30;62.10;;;;;;5072757;28;20576;-65
2023/11/22 07:33:20;;;;;;;1.90;1.80;;;17.40;61.50;;;;;;5073516;28;20699;-66
2023/11/22 07:35:46;;;;;;;1.90;1.80;;;17.50;60.90;;;;;;5073743;28;20212;-65
2023/11/22 07:38:12;;;;;;;1.63;1.52;;;17.40;61.20;;;;;;5073056;28;20178;-65
2023/11/22 07:40:37;;;;;;;1.58;1.48;;;17.50;61.10;;;;;;5073312;28;20219;-66
2023/11/22 07:43:04;;;;;;;1.80;1.70;;;17.60;60.90;;;;;;5073412;28;20202;-65
2023/11/22 07:45:31;;;;;;;1.65;1.55;;;17.60;60.80;;;;;;5072375;28;20192;-66
2023/11/22 07:47:59;;;;;;;1.83;1.73;;;17.60;60.90;;;;;;5072650;28;20189;-66
2023/11/22 07:50:25;;;;;;;1.80;1.70;;;17.60;60.80;;;;;;5052096;28;20811;-66
2023/11/22 07:52:51;;;;;;;1.95;1.80;;;17.50;60.90;;;;;;5053327;28;20250;-65
2023/11/22 07:55:18;;;;;;;1.58;1.48;;;17.60;60.80;;;;;;5053051;28;20260;-66
2023/11/22 07:57:44;;;;;;;1.90;1.67;;;17.60;61.00;;;;;;5052547;28;20204;-66
2023/11/22 08:00:11;;;;;;;1.80;1.70;;;17.60;60.80;;;;;;5053692;28;20278;-65
2023/11/22 08:02:38;;;;;;;1.70;1.60;;;17.60;60.70;;;;;;5052681;28;20263;-65
2023/11/22 08:05:08;;;;;;;1.85;1.75;;;17.60;60.80;;;;;;5052458;28;20175;-65
2023/11/22 08:07:39;;;;;;;1.70;1.60;;;17.60;60.80;;;;;;5052665;28;20211;-66
2023/11/22 08:10:09;;;;;;;1.70;1.60;;;17.60;60.70;;;;;;5052950;28;20656;-65
2023/11/22 08:12:37;;;;;;;2.05;1.80;;;17.60;60.70;;;;;;5052407;28;20268;-66
2023/11/22 08:15:03;;;;;;;1.85;1.67;;;17.60;60.90;;;;;;5052819;28;20171;-64
2023/11/22 08:17:29;;;;;;;1.63;1.52;;;17.50;61.10;;;;;;5052427;28;20178;-65
2023/11/22 08:20:00;;;;;;;1.88;1.77;;;17.50;61.10;;;;;;5052251;28;20257;-64
2023/11/22 08:22:28;;;;;;;1.60;1.50;;;17.40;61.30;;;;;;5052546;28;20175;-64
2023/11/22 08:24:55;;;;;;;1.80;1.70;;;17.30;61.70;;;;;;5052710;28;20225;-65
2023/11/22 08:27:21;;;;;;;1.60;1.50;;;17.20;61.70;;;;;;5051601;28;20229;-65
2023/11/22 08:29:48;;;;;;;1.75;1.65;;;17.20;62.10;;;;;;5051681;28;20183;-65
2023/11/22 08:32:13;;;;;;;1.63;1.52;;;17.20;62.30;;;;;;5052603;28;20214;-66
2023/11/22 08:34:39;;;;;;;2.08;1.90;;;17.20;62.20;;;;;;5051749;28;20245;-65
2023/11/22 08:37:04;;;;;;;2.47;1.90;;;17.20;62.20;;;;;;5052558;28;20187;-65
2023/11/22 08:39:30;;;;;;;1.65;1.55;;;17.20;62.10;;;;;;5051823;28;20171;-66
2023/11/22 08:41:55;;;;;;;2.28;2.08;;;17.30;62.10;;;;;;5052453;28;20277;-65
2023/11/22 08:44:21;;;;;;;1.80;1.70;;;17.30;62.00;;;;;;5052035;28;20735;-66
2023/11/22 08:46:47;;;;;;;2.08;1.92;;;17.30;62.00;;;;;;5051801;28;20174;-66
2023/11/22 08:49:13;;;;;;;2.22;2.03;;;17.30;62.00;;;;;;5062857;28;20675;-65
2023/11/22 08:51:38;;;;;;;1.63;1.52;;;17.20;62.00;;;;;;5071920;28;20284;-66
2023/11/22 08:54:04;;;;;;;2.42;1.77;;;17.20;62.30;;;;;;5071630;28;20185;-65
2023/11/22 08:56:29;;;;;;;2.42;2.22;;;17.10;62.30;;;;;;5072163;28;20590;-66
2023/11/22 08:58:55;;;;;;;1.90;1.80;;;17.00;62.60;;;;;;5072112;28;20177;-65
2023/11/22 09:01:21;;;;;;;2.30;1.98;;;17.00;62.60;;;;;;5071333;28;20170;-66
2023/11/22 09:03:47;;;;;;;2.25;2.10;;;17.00;62.70;;;;;;5072326;28;20510;-65
2023/11/22 09:06:12;;;;;;;1.80;1.70;;;17.00;62.90;;;;;;5072023;28;20663;-65
2023/11/22 09:08:38;;;;;;;2.97;2.10;;;16.90;63.00;;;;;;5071156;28;20253;-66
2023/11/22 09:11:06;;;;;;;1.80;1.70;;;16.90;63.10;;;;;;5071946;28;20411;-65
2023/11/22 09:13:32;;;;;;;1.83;1.73;;;16.90;63.10;;;;;;5071915;28;20308;-65
2023/11/22 09:15:57;;;;;;;1.73;1.63;;;16.90;63.10;;;;;;5071392;28;20255;-65
2023/11/22 09:18:23;;;;;;;2.45;2.25;;;17.00;63.00;;;;;;5071538;28;20207;-64
2023/11/22 09:20:48;;;;;;;2.28;2.08;;;17.00;63.00;;;;;;5072016;28;20166;-65
2023/11/22 09:23:15;;;;;;;1.83;1.73;;;16.90;63.20;;;;;;5070987;28;20174;-65
2023/11/22 09:25:40;;;;;;;2.08;1.98;;;16.80;63.10;;;;;;5071857;28;20177;-65
2023/11/22 09:28:07;;;;;;;2.50;2.00;;;16.80;63.30;;;;;;5071689;28;20175;-65
2023/11/22 09:30:34;;;;;;;2.22;2.03;;;16.80;63.50;;;;;;5071038;28;20186;-65
2023/11/22 09:33:01;;;;;;;1.88;1.77;;;16.80;63.60;;;;;;5071937;28;20275;-65
2023/11/22 09:35:29;;;;;;;2.08;1.92;;;16.80;63.50;;;;;;5071557;28;20197;-66
2023/11/22 09:37:55;;;;;;;2.47;2.13;;;16.80;63.50;;;;;;5071112;28;20183;-64
2023/11/22 09:40:22;;;;;;;2.20;2.00;;;16.80;63.50;;;;;;5073236;28;20181;-66
2023/11/22 09:42:51;;;;;;;2.15;1.98;;;16.80;63.40;;;;;;5074221;28;20171;-65
2023/11/22 09:45:18;;;;;;;2.35;1.70;;;16.80;63.60;;;;;;5074453;28;20612;-66
2023/11/22 09:47:44;;;;;;;1.70;1.60;;;16.70;63.60;;;;;;5074579;28;20257;-66
2023/11/22 09:50:13;;;;;;;2.47;2.08;;;16.60;63.70;;;;;;5055882;28;20670;-65
2023/11/22 09:52:38;;;;;;;1.90;1.80;;;16.60;63.70;;;;;;5054504;28;20219;-65
2023/11/22 09:55:05;;;;;;;2.13;2.03;;;16.60;63.90;;;;;;5054407;28;20179;-65
2023/11/22 09:57:31;;;;;;;2.30;2.10;;;16.60;64.00;;;;;;5036950;28;20182;-65
2023/11/22 09:59:56;;;;;;;2.20;2.00;;;16.60;64.00;;;;;;5054435;28;20167;-65
2023/11/22 10:02:26;;;;;;;2.10;2.00;;;16.60;63.90;;;;;;5053884;28;20261;-65
2023/11/22 10:04:52;;;;;;;2.13;2.03;;;16.60;63.90;;;;;;5054532;28;20175;-65
2023/11/22 10:07:18;;;;;;;2.25;2.13;;;16.60;63.90;;;;;;5055013;28;20202;-65
2023/11/22 10:09:43;;;;;;;2.30;2.10;;;16.60;64.00;;;;;;5055440;28;20206;-65
2023/11/22 10:12:12;;;;;;;2.50;2.30;;;16.50;64.10;;;;;;5054841;28;20650;-65
2023/11/22 10:14:38;;;;;;;2.13;1.92;;;16.50;64.30;;;;;;5037531;28;20187;-64
2023/11/22 10:17:05;;;;;;;1.95;1.85;;;16.50;64.50;;;;;;5055057;28;20649;-65
2023/11/22 10:19:30;;;;;;;2.15;1.98;;;16.40;64.30;;;;;;5054140;28;20179;-65
2023/11/22 10:22:17;;;;;;;2.33;2.13;;;16.40;64.40;;;;;;5055018;28;20240;-64
2023/11/22 10:24:46;;;;;;;2.13;2.03;;;16.40;64.40;;;;;;5054925;28;20629;-64
2023/11/22 10:27:12;;;;;;;2.33;2.05;;;16.50;64.40;;;;;;5052982;28;20187;-65
2023/11/22 10:29:37;;;;;;;1.95;1.85;;;16.50;64.50;;;;;;5054724;28;20179;-65
2023/11/22 10:32:03;;;;;;;2.25;2.05;;;16.50;64.50;;;;;;5054177;28;20218;-66
2023/11/22 10:34:29;;;;;;;1.70;1.60;;;16.40;64.50;;;;;;5054592;28;20175;-65
2023/11/22 10:36:55;;;;;;;2.00;1.90;;;16.40;64.60;;;;;;5053484;28;20182;-65
2023/11/22 10:39:21;;;;;;;1.92;1.83;;;16.40;64.80;;;;;;5053796;28;20178;-65
2023/11/22 10:41:47;;;;;;;2.10;2.00;;;16.30;64.80;;;;;;5054914;28;20171;-65
2023/11/22 10:44:14;;;;;;;2.22;2.13;;;16.40;64.80;;;;;;5054699;28;20545;-65
2023/11/22 10:46:40;;;;;;;2.15;1.95;;;16.40;64.70;;;;;;5053892;28;20179;-65
2023/11/22 10:49:09;;;;;;;2.85;2.50;;;16.40;64.60;;;;;;5064226;28;20220;-65
2023/11/22 10:51:34;;;;;;;3.20;2.38;;;16.40;64.70;;;;;;5072938;28;20235;-66
2023/11/22 10:54:03;;;;;;;2.28;2.10;;;16.40;64.50;;;;;;5072730;28;20182;-65
2023/11/22 10:56:31;;;;;;;2.63;2.42;;;16.40;64.50;;;;;;5074331;28;20170;-66
2023/11/22 10:58:57;;;;;;;2.20;2.00;;;16.40;65.60;;;;;;5056878;28;20518;-65
2023/11/22 11:01:25;;;;;;;2.10;1.90;;;16.40;65.10;;;;;;5073478;28;20698;-65
2023/11/22 11:03:55;;;;;;;2.30;2.10;;;16.30;65.30;;;;;;5074192;28;20176;-64
2023/11/22 11:06:27;;;;;;;1.95;1.85;;;16.30;65.30;;;;;;5074158;28;20170;-64
2023/11/22 11:08:53;;;;;;;2.03;1.85;;;16.30;65.30;;;;;;5072519;28;20178;-65
2023/11/22 11:11:18;;;;;;;1.88;1.77;;;16.30;65.30;;;;;;5055823;28;20256;-65
2023/11/22 11:13:44;;;;;;;2.75;2.45;;;16.30;65.30;;;;;;5072945;28;20190;-64
2023/11/22 11:16:09;;;;;;;2.00;1.90;;;16.30;65.20;;;;;;5072182;28;20220;-64
2023/11/22 11:18:35;;;;;;;2.85;2.13;;;16.30;65.10;;;;;;5072415;28;20174;-64
2023/11/22 11:21:07;;;;;;;2.33;2.15;;;16.30;64.90;;;;;;5073847;28;20261;-65
2023/11/22 11:23:32;;;;;;;2.40;2.20;;;16.30;65.30;;;;;;5071689;28;20756;-64
2023/11/22 11:26:03;;;;;;;2.40;2.20;;;16.30;65.30;;;;;;5073709;28;20273;-64
2023/11/22 11:28:30;;;;;;;2.25;2.08;;;16.30;65.40;;;;;;5073039;28;20205;-64
2023/11/22 11:30:56;;;;;;;2.10;1.90;;;16.30;65.40;;;;;;5055831;28;20186;-64
2023/11/22 11:33:34;;;;;;;2.60;2.10;;;16.30;65.40;;;;;;5072169;28;20756;-64
2023/11/22 11:36:03;;;;;;;2.47;2.28;;;16.30;65.40;;;;;;5072978;28;20630;-66
2023/11/22 11:38:33;;;;;;;2.47;2.28;;;16.30;65.40;;;;;;5073392;28;20198;-66
2023/11/22 11:41:06;;;;;;;2.25;2.15;;;16.30;65.50;;;;;;5072549;28;20175;-64
2023/11/22 11:43:50;;;;;;;2.85;2.30;;;16.30;65.60;;;;;;5072331;28;20182;-65
2023/11/22 11:46:16;;;;;;;2.78;2.22;;;16.30;65.60;;;;;;5073292;28;20182;-65
2023/11/22 11:48:45;;;;;;;2.10;1.90;;;16.30;65.60;;;;;;5066765;28;20175;-66
2023/11/22 11:51:14;;;;;;;2.17;2.08;;;16.30;65.70;;;;;;5052368;28;20716;-65
2023/11/22 11:53:39;;;;;;;2.40;2.20;;;16.20;65.70;;;;;;5053359;28;20233;-66
2023/11/22 11:56:05;;;;;;;2.53;2.28;;;16.20;65.50;;;;;;5053462;28;20171;-66
2023/11/22 11:58:37;;;;;;;2.00;1.90;;;16.20;65.60;;;;;;5052172;28;20588;-66
2023/11/22 12:01:05;;;;;;;2.75;2.55;;;16.30;65.70;;;;;;5053288;28;20183;-65
2023/11/22 12:03:30;;;;;;;2.40;2.20;;;16.20;65.50;;;;;;5052136;28;20206;-66
2023/11/22 12:05:56;;;;;;;3.30;2.63;;;16.20;65.60;;;;;;5053096;28;20203;-65
2023/11/22 12:08:22;;;;;;;2.50;2.40;;;16.20;65.60;;;;;;5052662;28;20179;-65
2023/11/22 12:10:50;;;;;;;2.30;2.15;;;16.20;65.70;;;;;;5052239;28;20175;-65
2023/11/22 12:13:20;;;;;;;2.30;2.10;;;16.20;65.90;;;;;;5052779;28;20228;-65
2023/11/22 12:15:47;;;;;;;2.50;2.30;;;16.20;65.90;;;;;;5052973;28;20225;-65
2023/11/22 12:18:12;;;;;;;2.28;2.17;;;16.10;65.80;;;;;;5052195;28;20252;-65
2023/11/22 12:20:38;;;;;;;2.13;2.00;;;16.20;65.90;;;;;;5052595;28;20622;-65
2023/11/22 12:23:04;;;;;;;2.45;2.25;;;16.10;65.80;;;;;;5052720;28;20182;-65
2023/11/22 12:25:30;;;;;;;3.15;2.55;;;16.10;65.80;;;;;;5050463;28;20183;-65
2023/11/22 12:27:56;;;;;;;2.22;2.13;;;16.10;65.80;;;;;;5052669;28;20229;-66
2023/11/22 12:30:35;;;;;;;2.83;2.47;;;16.10;65.90;;;;;;5052207;28;20182;-66
2023/11/22 12:33:02;;;;;;;2.20;2.10;;;16.10;65.80;;;;;;5051803;28;20210;-66
2023/11/22 12:35:28;;;;;;;2.58;2.38;;;16.10;65.90;;;;;;5052198;28;20544;-66
2023/11/22 12:37:54;;;;;;;2.85;2.65;;;16.10;65.80;;;;;;5051596;28;20174;-66
2023/11/22 12:40:20;;;;;;;2.25;2.15;;;16.10;65.80;;;;;;5050545;28;20183;-66
2023/11/22 12:42:49;;;;;;;2.15;2.00;;;16.10;65.70;;;;;;5052411;28;20182;-66